Time;durP1;ratioP1;P1;durP2;ratioP2;P2;SDS_P1;SDS_P2;PMS_P1;PMS_P2;Temp;Humidity;BMP_temperature;BMP_pressure;BME280_temperature;BME280_humidity;BME280_pressure;Samples;Min_cycle;Max_cycle;Signal;HPM_P1;HPM_P2
2022/11/10 00:00:29;;;;;;;0.05;0.05;;;11.40;99.90;;;;;;5053854;28;20547;-77
2022/11/10 00:03:03;;;;;;;0.10;0.10;;;11.50;99.90;;;;;;5053313;28;20593;-74
2022/11/10 00:05:28;;;;;;;0.00;0.00;;;11.40;99.90;;;;;;5053274;28;20173;-77
2022/11/10 00:07:54;;;;;;;0.03;0.03;;;11.40;99.90;;;;;;5053612;28;20225;-77
2022/11/10 00:10:20;;;;;;;0.03;0.03;;;11.50;99.90;;;;;;5053239;28;20177;-78
2022/11/10 00:12:45;;;;;;;0.00;0.00;;;11.40;99.90;;;;;;5053793;28;20181;-78
2022/11/10 00:17:55;;;;;;;0.10;0.10;;;11.40;99.90;;;;;;5053097;28;20589;-76
2022/11/10 00:20:21;;;;;;;0.00;0.00;;;11.40;99.90;;;;;;5053684;28;20182;-78
2022/11/10 00:22:46;;;;;;;0.03;0.03;;;11.40;99.90;;;;;;5053104;28;20181;-77
2022/11/10 00:25:12;;;;;;;0.10;0.10;;;11.40;99.90;;;;;;5052755;28;20181;-77
2022/11/10 00:27:37;;;;;;;0.00;0.00;;;11.40;99.90;;;;;;5052807;28;20676;-76
2022/11/10 00:30:04;;;;;;;0.00;0.00;;;11.40;99.90;;;;;;5053171;28;20235;-78
2022/11/10 00:32:30;;;;;;;0.00;0.00;;;11.40;99.90;;;;;;5053494;28;20586;-78
2022/11/10 00:34:56;;;;;;;0.00;0.00;;;11.40;99.90;;;;;;5052622;28;20801;-77
2022/11/10 00:37:21;;;;;;;0.00;0.00;;;11.40;99.90;;;;;;5052412;28;20510;-77
2022/11/10 00:39:47;;;;;;;0.10;0.10;;;11.40;99.90;;;;;;5051737;28;20293;-77
2022/11/10 00:42:12;;;;;;;0.15;0.15;;;11.40;99.90;;;;;;5053099;28;20177;-76
2022/11/10 00:44:38;;;;;;;0.00;0.00;;;11.40;99.90;;;;;;5052407;28;20205;-77
2022/11/10 00:47:04;;;;;;;0.00;0.00;;;11.40;99.90;;;;;;5051609;28;20209;-78
2022/11/10 00:49:29;;;;;;;0.00;0.00;;;11.40;99.90;;;;;;5052921;28;20185;-78
2022/11/10 00:51:55;;;;;;;0.00;0.00;;;11.40;99.90;;;;;;5053164;28;20548;-77
2022/11/10 00:54:20;;;;;;;0.00;0.00;;;11.30;99.90;;;;;;5053438;28;20213;-78
2022/11/10 00:56:46;;;;;;;0.00;0.00;;;11.30;99.90;;;;;;5053970;28;20387;-78
2022/11/10 00:59:11;;;;;;;0.13;0.13;;;11.40;99.90;;;;;;5053528;28;20671;-79
2022/11/10 01:01:37;;;;;;;0.00;0.00;;;11.40;99.90;;;;;;5052614;28;20659;-77
2022/11/10 01:04:03;;;;;;;0.00;0.00;;;11.30;99.90;;;;;;5052449;28;20185;-79
2022/11/10 01:06:28;;;;;;;0.05;0.05;;;11.30;99.90;;;;;;5052000;28;20196;-78
2022/11/10 01:08:54;;;;;;;0.00;0.00;;;11.30;99.90;;;;;;5053244;28;20229;-78
2022/11/10 01:11:24;;;;;;;0.00;0.00;;;11.30;99.90;;;;;;5052607;28;20185;-78
2022/11/10 01:13:51;;;;;;;0.00;0.00;;;11.30;99.90;;;;;;5052681;28;20721;-78
2022/11/10 01:16:20;;;;;;;0.00;0.00;;;11.30;99.90;;;;;;5051498;28;20189;-77
2022/11/10 01:18:56;;;;;;;0.80;0.43;;;11.30;99.90;;;;;;5051965;28;20192;-77
2022/11/10 01:21:23;;;;;;;0.00;0.00;;;11.20;99.90;;;;;;5050926;28;20243;-77
2022/11/10 01:23:49;;;;;;;0.00;0.00;;;11.20;99.90;;;;;;5052046;28;20182;-77
2022/11/10 01:26:15;;;;;;;0.00;0.00;;;11.10;99.90;;;;;;5052057;28;20169;-78
2022/11/10 01:28:41;;;;;;;0.00;0.00;;;11.10;99.90;;;;;;5051756;28;20185;-77
2022/11/10 01:31:09;;;;;;;0.00;0.00;;;11.10;99.90;;;;;;5051588;28;20272;-77
2022/11/10 01:33:35;;;;;;;0.00;0.00;;;11.00;99.90;;;;;;5051226;28;20192;-77
2022/11/10 01:36:01;;;;;;;0.00;0.00;;;11.00;99.90;;;;;;5050972;28;20239;-77
2022/11/10 01:38:29;;;;;;;0.00;0.00;;;11.00;99.90;;;;;;5052247;28;20186;-77
2022/11/10 01:40:56;;;;;;;0.00;0.00;;;10.90;99.90;;;;;;5051804;28;20185;-75
2022/11/10 01:43:21;;;;;;;0.00;0.00;;;10.90;99.90;;;;;;5052759;28;20181;-78
2022/11/10 01:46:07;;;;;;;0.20;0.20;;;10.90;99.90;;;;;;5052411;28;20186;-78
2022/11/10 01:48:43;;;;;;;0.00;0.00;;;10.80;99.90;;;;;;5038136;28;20535;-78
2022/11/10 01:51:34;;;;;;;0.00;0.00;;;10.80;99.90;;;;;;5050794;28;20184;-78
2022/11/10 01:54:05;;;;;;;0.00;0.00;;;10.80;99.90;;;;;;5050974;28;20212;-77
2022/11/10 01:56:35;;;;;;;0.00;0.00;;;10.70;99.90;;;;;;5051190;28;20220;-78
2022/11/10 01:59:07;;;;;;;0.00;0.00;;;10.70;99.90;;;;;;5050295;28;20238;-79
2022/11/10 02:01:33;;;;;;;0.03;0.03;;;10.70;99.90;;;;;;5050681;28;20228;-78
2022/11/10 02:04:02;;;;;;;0.00;0.00;;;10.70;99.90;;;;;;5050844;28;20672;-78
2022/11/10 02:06:31;;;;;;;0.03;0.03;;;10.70;99.90;;;;;;5049390;28;20177;-79
2022/11/10 02:09:00;;;;;;;0.65;0.30;;;10.70;99.90;;;;;;5051008;28;20225;-77
2022/11/10 02:11:27;;;;;;;0.10;0.10;;;10.70;99.90;;;;;;5050781;28;20217;-77
2022/11/10 02:13:53;;;;;;;0.00;0.00;;;10.60;99.90;;;;;;5050844;28;20258;-77
2022/11/10 02:16:20;;;;;;;0.10;0.10;;;10.60;99.90;;;;;;5050731;28;20193;-77
2022/11/10 02:18:46;;;;;;;0.00;0.00;;;10.60;99.90;;;;;;5051536;28;20189;-78
2022/11/10 02:21:16;;;;;;;0.00;0.00;;;10.60;99.90;;;;;;5054304;28;20206;-78
2022/11/10 02:23:44;;;;;;;0.00;0.00;;;10.60;99.90;;;;;;5054197;28;20625;-78
2022/11/10 02:26:12;;;;;;;0.00;0.00;;;10.60;99.90;;;;;;5043699;28;20621;-78
2022/11/10 02:28:38;;;;;;;0.45;0.45;;;10.50;99.90;;;;;;5054317;28;20209;-78
2022/11/10 02:31:05;;;;;;;0.08;0.08;;;10.50;99.90;;;;;;5054314;28;20259;-78
2022/11/10 02:33:30;;;;;;;0.00;0.00;;;10.50;99.90;;;;;;5054307;28;20201;-78
2022/11/10 02:35:56;;;;;;;0.05;0.05;;;10.50;99.90;;;;;;5052970;28;20217;-77
2022/11/10 02:38:22;;;;;;;0.00;0.00;;;10.40;99.90;;;;;;5054393;28;20184;-77
2022/11/10 02:40:48;;;;;;;0.00;0.00;;;10.40;99.90;;;;;;5054206;28;20173;-78
2022/11/10 02:43:16;;;;;;;0.00;0.00;;;10.40;99.90;;;;;;5054428;28;20735;-77
2022/11/10 02:45:44;;;;;;;0.00;0.00;;;10.40;99.90;;;;;;5053721;28;20181;-78
2022/11/10 02:48:12;;;;;;;0.00;0.00;;;10.30;99.90;;;;;;5049490;28;20514;-78
2022/11/10 02:50:38;;;;;;;0.00;0.00;;;10.30;99.90;;;;;;5053318;28;20181;-78
2022/11/10 02:53:05;;;;;;;0.00;0.00;;;10.30;99.90;;;;;;5053703;28;20248;-79
2022/11/10 02:55:31;;;;;;;0.03;0.03;;;10.20;99.90;;;;;;5053471;28;20256;-78
2022/11/10 02:57:56;;;;;;;0.00;0.00;;;10.20;99.90;;;;;;5053764;28;20197;-78
2022/11/10 03:00:22;;;;;;;0.00;0.00;;;10.10;99.90;;;;;;5054090;28;20209;-79
2022/11/10 03:02:48;;;;;;;0.17;0.17;;;10.00;99.90;;;;;;5053896;28;20192;-78
2022/11/10 03:05:14;;;;;;;0.10;0.10;;;10.00;99.90;;;;;;5054436;28;20641;-79
2022/11/10 03:07:39;;;;;;;0.00;0.00;;;9.90;99.90;;;;;;5053644;28;20236;-78
2022/11/10 03:10:06;;;;;;;0.00;0.00;;;9.90;99.90;;;;;;5053520;28;20181;-78
2022/11/10 03:12:31;;;;;;;0.00;0.00;;;9.90;99.90;;;;;;5053822;28;20192;-77
2022/11/10 03:14:57;;;;;;;0.00;0.00;;;9.90;99.90;;;;;;5053543;28;20221;-77
2022/11/10 03:17:22;;;;;;;0.05;0.05;;;9.90;99.90;;;;;;5053764;28;20189;-77
2022/11/10 03:19:49;;;;;;;0.00;0.00;;;9.90;99.90;;;;;;5053399;28;20188;-77
2022/11/10 03:22:14;;;;;;;0.00;0.00;;;9.90;99.90;;;;;;5053401;28;20255;-77
2022/11/10 03:24:40;;;;;;;0.10;0.10;;;9.90;99.90;;;;;;5053826;28;20637;-75
2022/11/10 03:27:06;;;;;;;0.00;0.00;;;9.90;99.90;;;;;;5053210;28;20672;-78
2022/11/10 03:29:31;;;;;;;0.03;0.03;;;9.80;99.90;;;;;;5052841;28;20177;-78
2022/11/10 03:31:57;;;;;;;0.08;0.05;;;9.80;99.90;;;;;;5053378;28;20280;-78
2022/11/10 03:34:22;;;;;;;0.10;0.10;;;9.70;99.90;;;;;;5052810;28;20207;-78
2022/11/10 03:36:48;;;;;;;0.00;0.00;;;9.70;99.90;;;;;;5052734;28;20186;-78
2022/11/10 03:39:13;;;;;;;0.00;0.00;;;9.70;99.90;;;;;;5052088;28;20252;-78
2022/11/10 03:41:39;;;;;;;0.00;0.00;;;9.70;99.90;;;;;;5053367;28;20196;-78
2022/11/10 03:44:05;;;;;;;0.00;0.00;;;9.60;99.90;;;;;;5053118;28;20192;-78
2022/11/10 03:46:30;;;;;;;0.00;0.00;;;9.60;99.90;;;;;;5052746;28;20177;-78
2022/11/10 03:48:56;;;;;;;0.73;0.73;;;9.60;99.90;;;;;;5052546;28;20202;-78
2022/11/10 03:51:21;;;;;;;0.35;0.08;;;9.60;99.90;;;;;;5053504;28;20240;-78
2022/11/10 03:53:47;;;;;;;0.00;0.00;;;9.60;99.90;;;;;;5053065;28;20197;-77
2022/11/10 03:56:12;;;;;;;0.15;0.15;;;9.60;99.90;;;;;;5051294;28;20181;-77
2022/11/10 03:58:39;;;;;;;0.00;0.00;;;9.60;99.90;;;;;;5053101;28;20189;-78
2022/11/10 04:01:04;;;;;;;0.05;0.05;;;9.50;99.90;;;;;;5052717;28;20181;-78
2022/11/10 04:03:30;;;;;;;0.00;0.00;;;9.50;99.90;;;;;;5053146;28;20261;-78
2022/11/10 04:08:57;;;;;;;0.43;0.20;;;9.50;99.90;;;;;;5052589;28;20228;-78
2022/11/10 04:16:52;;;;;;;0.00;0.00;;;9.40;99.90;;;;;;5052432;28;20659;-77
2022/11/10 04:19:18;;;;;;;0.00;0.00;;;9.30;99.90;;;;;;5052246;28;20268;-77
2022/11/10 04:21:43;;;;;;;0.00;0.00;;;9.30;99.90;;;;;;5052605;28;20249;-78
2022/11/10 04:24:09;;;;;;;0.22;0.22;;;9.20;99.90;;;;;;5052127;28;20633;-78
2022/11/10 04:26:37;;;;;;;0.00;0.00;;;9.20;99.90;;;;;;5052714;28;20201;-78
2022/11/10 04:29:05;;;;;;;0.00;0.00;;;9.20;99.90;;;;;;5052179;28;20182;-78
2022/11/10 04:31:32;;;;;;;0.03;0.03;;;9.20;99.90;;;;;;5052460;28;20173;-78
2022/11/10 04:33:58;;;;;;;0.00;0.00;;;9.10;99.90;;;;;;5051975;28;20204;-78
2022/11/10 04:36:27;;;;;;;0.08;0.08;;;9.10;99.90;;;;;;5052104;28;20709;-77
2022/11/10 04:38:54;;;;;;;0.00;0.00;;;9.10;99.90;;;;;;5047941;28;20201;-77
2022/11/10 04:41:20;;;;;;;0.00;0.00;;;9.10;99.90;;;;;;5051307;28;20181;-76
2022/11/10 04:43:46;;;;;;;0.08;0.08;;;9.10;99.90;;;;;;5052208;28;20272;-77
2022/11/10 04:46:23;;;;;;;0.00;0.00;;;9.00;99.90;;;;;;5050660;28;20272;-75
2022/11/10 04:48:50;;;;;;;0.00;0.00;;;9.10;99.90;;;;;;5051981;28;20177;-76
2022/11/10 04:51:16;;;;;;;0.00;0.00;;;9.10;99.90;;;;;;5051706;28;20186;-75
2022/11/10 04:53:42;;;;;;;0.00;0.00;;;9.00;99.90;;;;;;5052221;28;20596;-75
2022/11/10 04:56:14;;;;;;;0.00;0.00;;;9.10;99.90;;;;;;5051799;28;20190;-76
2022/11/10 04:58:39;;;;;;;0.00;0.00;;;9.00;99.90;;;;;;5051649;28;20264;-71
2022/11/10 05:01:05;;;;;;;0.00;0.00;;;9.10;99.90;;;;;;5051538;28;20277;-70
2022/11/10 05:03:30;;;;;;;0.00;0.00;;;9.00;99.90;;;;;;5051964;28;20209;-69
2022/11/10 05:05:56;;;;;;;0.00;0.00;;;9.00;99.90;;;;;;5051427;28;20186;-70
2022/11/10 05:08:21;;;;;;;0.25;0.25;;;9.00;99.90;;;;;;5051458;28;20224;-66
2022/11/10 05:10:47;;;;;;;0.00;0.00;;;9.00;99.90;;;;;;5051959;28;20272;-69
2022/11/10 05:13:13;;;;;;;0.00;0.00;;;8.90;99.90;;;;;;5051147;28;20170;-76
2022/11/10 05:15:40;;;;;;;0.00;0.00;;;8.90;99.90;;;;;;5051177;28;20217;-73
2022/11/10 05:18:06;;;;;;;0.00;0.00;;;8.90;99.90;;;;;;5052983;28;20207;-75
2022/11/10 05:20:32;;;;;;;0.00;0.00;;;8.90;99.90;;;;;;5062883;28;20185;-76
2022/11/10 05:25:43;;;;;;;0.00;0.00;;;8.90;99.90;;;;;;5068643;28;20188;-66
2022/11/10 05:28:10;;;;;;;0.00;0.00;;;8.90;99.90;;;;;;5066143;28;20182;-67
2022/11/10 05:30:37;;;;;;;0.00;0.00;;;8.90;99.90;;;;;;5052017;28;20607;-74
2022/11/10 05:33:03;;;;;;;0.00;0.00;;;8.90;99.90;;;;;;5057369;28;20173;-73
2022/11/10 05:35:28;;;;;;;0.00;0.00;;;8.80;99.90;;;;;;5071900;28;20216;-73
2022/11/10 05:37:54;;;;;;;0.00;0.00;;;8.80;99.90;;;;;;5058119;28;20668;-70
2022/11/10 05:40:20;;;;;;;0.00;0.00;;;8.80;99.90;;;;;;5050801;28;20178;-73
2022/11/10 05:42:47;;;;;;;0.00;0.00;;;8.70;99.90;;;;;;5049959;28;20397;-71
2022/11/10 05:45:14;;;;;;;0.20;0.20;;;8.70;99.90;;;;;;5051781;28;20264;-71
2022/11/10 05:47:40;;;;;;;0.03;0.03;;;8.70;99.90;;;;;;5051649;28;20170;-71
2022/11/10 05:50:07;;;;;;;0.30;0.30;;;8.70;99.90;;;;;;5051486;28;20173;-71
2022/11/10 05:52:33;;;;;;;0.00;0.00;;;8.70;99.90;;;;;;5051829;28;20178;-71
2022/11/10 05:54:58;;;;;;;0.00;0.00;;;8.70;99.90;;;;;;5055629;28;20212;-70
2022/11/10 05:57:24;;;;;;;0.00;0.00;;;8.70;99.90;;;;;;5055475;28;20651;-71
2022/11/10 05:59:49;;;;;;;0.00;0.00;;;8.70;99.90;;;;;;5055670;28;20197;-71
2022/11/10 06:02:15;;;;;;;0.00;0.00;;;8.60;99.90;;;;;;5055455;28;20269;-71
2022/11/10 06:04:40;;;;;;;0.00;0.00;;;8.60;99.90;;;;;;5055638;28;20205;-71
2022/11/10 06:07:10;;;;;;;0.00;0.00;;;8.60;99.90;;;;;;5055329;28;20208;-71
2022/11/10 06:09:36;;;;;;;0.13;0.13;;;8.60;99.90;;;;;;5055565;28;20186;-71
2022/11/10 06:12:02;;;;;;;0.10;0.10;;;8.60;99.90;;;;;;5055234;28;20730;-71
2022/11/10 06:14:28;;;;;;;0.00;0.00;;;8.60;99.90;;;;;;5055232;28;20680;-71
2022/11/10 06:16:53;;;;;;;0.00;0.00;;;8.60;99.90;;;;;;5055330;28;20185;-71
2022/11/10 06:19:19;;;;;;;0.00;0.00;;;8.70;99.90;;;;;;5053950;28;20177;-71
2022/11/10 06:21:44;;;;;;;0.57;0.15;;;8.60;99.90;;;;;;5055037;28;20291;-71
2022/11/10 06:24:10;;;;;;;0.00;0.00;;;8.60;99.90;;;;;;5055100;28;20180;-71
2022/11/10 06:26:36;;;;;;;0.10;0.10;;;8.70;99.90;;;;;;5055201;28;20177;-71
2022/11/10 06:29:01;;;;;;;0.00;0.00;;;8.70;99.90;;;;;;5054829;28;20173;-71
2022/11/10 06:31:27;;;;;;;0.00;0.00;;;8.60;99.90;;;;;;5055134;28;20189;-71
2022/11/10 06:33:52;;;;;;;0.00;0.00;;;8.70;99.90;;;;;;5054883;28;20236;-71
2022/11/10 06:36:18;;;;;;;0.10;0.10;;;8.70;99.90;;;;;;5054829;28;20182;-71
2022/11/10 06:38:43;;;;;;;0.00;0.00;;;8.60;99.90;;;;;;5054933;28;20185;-71
2022/11/10 06:41:09;;;;;;;0.30;0.30;;;8.60;99.90;;;;;;5054837;28;20205;-71
2022/11/10 06:43:34;;;;;;;0.10;0.10;;;8.60;99.90;;;;;;5054918;28;20264;-71
2022/11/10 06:46:00;;;;;;;0.00;0.00;;;8.60;99.90;;;;;;5054801;28;20680;-71
2022/11/10 06:48:25;;;;;;;0.03;0.03;;;8.70;99.90;;;;;;5054711;28;20522;-71
2022/11/10 06:50:51;;;;;;;0.00;0.00;;;8.70;99.90;;;;;;5054899;28;20185;-71
2022/11/10 06:53:17;;;;;;;0.47;0.47;;;8.70;99.90;;;;;;5054567;28;20173;-71
2022/11/10 06:55:42;;;;;;;0.00;0.00;;;8.70;99.90;;;;;;5054514;28;20266;-71
2022/11/10 06:58:09;;;;;;;0.03;0.03;;;8.70;99.90;;;;;;5054606;28;20264;-71
2022/11/10 07:00:34;;;;;;;0.10;0.10;;;8.80;99.90;;;;;;5054567;28;20182;-71
2022/11/10 07:03:08;;;;;;;0.13;0.13;;;8.80;99.90;;;;;;5054475;28;20173;-71
2022/11/10 07:05:35;;;;;;;0.00;0.00;;;8.80;99.90;;;;;;5053692;28;20177;-71
2022/11/10 07:08:06;;;;;;;0.00;0.00;;;8.90;99.90;;;;;;5054096;28;20229;-71
2022/11/10 07:10:33;;;;;;;0.15;0.15;;;9.00;99.90;;;;;;5054389;28;20177;-71
2022/11/10 07:13:00;;;;;;;0.00;0.00;;;9.00;99.90;;;;;;5054217;28;20713;-71
2022/11/10 07:15:26;;;;;;;0.00;0.00;;;9.10;99.90;;;;;;5054031;28;20586;-71
2022/11/10 07:17:51;;;;;;;0.20;0.20;;;9.10;99.90;;;;;;5054258;28;20173;-71
2022/11/10 07:20:17;;;;;;;0.00;0.00;;;9.20;99.90;;;;;;5053966;28;20268;-71
2022/11/10 07:22:42;;;;;;;0.30;0.30;;;9.30;99.90;;;;;;5054109;28;20173;-71
2022/11/10 07:25:08;;;;;;;0.00;0.00;;;9.30;99.90;;;;;;5054286;28;20278;-71
2022/11/10 07:27:34;;;;;;;0.00;0.00;;;9.40;99.90;;;;;;5054047;28;20538;-71
2022/11/10 07:29:59;;;;;;;0.10;0.10;;;9.40;99.90;;;;;;5053948;28;20182;-71
2022/11/10 07:32:25;;;;;;;0.00;0.00;;;9.40;99.90;;;;;;5054048;28;20535;-71
2022/11/10 07:34:51;;;;;;;0.20;0.03;;;9.50;99.90;;;;;;5053846;28;20716;-71
2022/11/10 07:37:16;;;;;;;0.10;0.10;;;9.50;99.90;;;;;;5053841;28;20169;-72
2022/11/10 07:39:42;;;;;;;0.00;0.00;;;9.60;99.90;;;;;;5053804;28;20177;-71
2022/11/10 07:42:07;;;;;;;0.00;0.00;;;9.70;99.90;;;;;;5053675;28;20177;-71
2022/11/10 07:44:33;;;;;;;0.10;0.08;;;9.90;99.90;;;;;;5053729;28;20256;-71
2022/11/10 07:46:59;;;;;;;0.00;0.00;;;10.10;99.90;;;;;;5053566;28;20196;-70
2022/11/10 07:49:24;;;;;;;0.10;0.10;;;10.20;99.90;;;;;;5053676;28;20531;-71
2022/11/10 07:51:50;;;;;;;0.00;0.00;;;10.30;99.90;;;;;;5053585;28;20713;-71
2022/11/10 07:54:15;;;;;;;0.20;0.20;;;10.50;99.90;;;;;;5053415;28;20204;-71
2022/11/10 07:56:41;;;;;;;0.00;0.00;;;10.60;99.90;;;;;;5053546;28;20189;-71
2022/11/10 07:59:07;;;;;;;0.03;0.03;;;10.70;99.90;;;;;;5053326;28;20255;-71
2022/11/10 08:01:33;;;;;;;0.10;0.10;;;10.70;99.90;;;;;;5053410;28;20260;-71
2022/11/10 08:03:58;;;;;;;0.00;0.00;;;10.80;99.90;;;;;;5053363;28;20181;-71
2022/11/10 08:06:24;;;;;;;0.00;0.00;;;10.90;99.90;;;;;;5053224;28;20177;-71
2022/11/10 08:08:50;;;;;;;0.00;0.00;;;11.10;99.90;;;;;;5053039;28;20346;-71
2022/11/10 08:11:15;;;;;;;0.00;0.00;;;11.20;99.90;;;;;;5053054;28;20196;-70
2022/11/10 08:13:41;;;;;;;0.00;0.00;;;11.30;99.90;;;;;;5053108;28;20239;-71
2022/11/10 08:16:07;;;;;;;0.10;0.10;;;11.50;99.90;;;;;;5053086;28;20268;-71
2022/11/10 08:18:32;;;;;;;0.00;0.00;;;11.60;99.90;;;;;;5053135;28;20697;-71
2022/11/10 08:21:02;;;;;;;0.17;0.17;;;11.70;99.90;;;;;;5052879;28;20185;-70
2022/11/10 08:23:27;;;;;;;0.00;0.00;;;11.80;99.90;;;;;;5053054;28;20177;-71
2022/11/10 08:25:56;;;;;;;0.63;0.63;;;11.90;99.90;;;;;;5052954;28;20200;-71
2022/11/10 08:28:21;;;;;;;0.00;0.00;;;12.10;99.90;;;;;;5052692;28;20177;-71
2022/11/10 08:30:48;;;;;;;0.00;0.00;;;12.10;99.90;;;;;;5052932;28;20651;-71
2022/11/10 08:33:16;;;;;;;0.00;0.00;;;12.20;99.90;;;;;;5052714;28;20239;-71
2022/11/10 08:35:44;;;;;;;0.00;0.00;;;12.20;99.90;;;;;;5052664;28;20240;-71
2022/11/10 08:38:13;;;;;;;0.00;0.00;;;12.30;99.90;;;;;;5051483;28;20180;-71
2022/11/10 08:40:39;;;;;;;0.00;0.00;;;12.30;99.90;;;;;;5052711;28;20173;-71
2022/11/10 08:43:06;;;;;;;0.00;0.00;;;12.30;99.90;;;;;;5052510;28;20208;-71
2022/11/10 08:45:36;;;;;;;0.00;0.00;;;12.40;99.90;;;;;;5052660;28;20227;-71
2022/11/10 08:48:05;;;;;;;0.00;0.00;;;12.40;99.90;;;;;;5052407;28;20181;-71
2022/11/10 08:50:31;;;;;;;0.00;0.00;;;12.50;99.90;;;;;;5052435;28;20636;-71
2022/11/10 08:53:00;;;;;;;0.10;0.10;;;12.60;99.90;;;;;;5052426;28;20257;-71
2022/11/10 08:55:25;;;;;;;0.00;0.00;;;12.70;99.90;;;;;;5052244;28;20646;-71
2022/11/10 08:57:51;;;;;;;0.10;0.10;;;12.80;99.90;;;;;;5052392;28;20253;-71
2022/11/10 09:00:17;;;;;;;0.08;0.08;;;12.90;99.90;;;;;;5052178;28;20170;-71
2022/11/10 09:02:42;;;;;;;0.20;0.17;;;13.00;99.90;;;;;;5052312;28;20170;-70
2022/11/10 09:05:08;;;;;;;0.00;0.00;;;13.20;99.90;;;;;;5052307;28;20182;-71
2022/11/10 09:07:43;;;;;;;0.00;0.00;;;13.10;99.90;;;;;;5052140;28;20217;-71
2022/11/10 09:10:09;;;;;;;0.00;0.00;;;13.20;99.90;;;;;;5052263;28;20173;-71
2022/11/10 09:12:36;;;;;;;0.00;0.00;;;13.20;99.90;;;;;;5052205;28;20240;-71
2022/11/10 09:15:02;;;;;;;0.25;0.25;;;13.20;99.90;;;;;;5051939;28;20245;-71
2022/11/10 09:17:27;;;;;;;0.17;0.17;;;13.30;99.90;;;;;;5052050;28;20227;-71
2022/11/10 09:19:53;;;;;;;0.00;0.00;;;13.40;99.90;;;;;;5052026;28;20177;-71
2022/11/10 09:22:18;;;;;;;0.10;0.10;;;13.50;99.90;;;;;;5052075;28;20170;-71
2022/11/10 09:24:44;;;;;;;0.43;0.32;;;13.50;99.90;;;;;;5052008;28;20645;-71
2022/11/10 09:27:10;;;;;;;0.20;0.17;;;13.60;99.90;;;;;;5051772;28;20169;-71
2022/11/10 09:29:35;;;;;;;0.00;0.00;;;13.70;99.90;;;;;;5051815;28;20178;-71
2022/11/10 09:32:01;;;;;;;0.00;0.00;;;13.70;99.90;;;;;;5051924;28;20680;-70
2022/11/10 09:34:26;;;;;;;0.00;0.00;;;13.70;99.90;;;;;;5052002;28;20209;-71
2022/11/10 09:36:52;;;;;;;0.43;0.43;;;13.70;99.90;;;;;;5051982;28;20178;-71
2022/11/10 09:39:18;;;;;;;0.00;0.00;;;13.70;99.90;;;;;;5051969;28;20655;-71
2022/11/10 09:41:44;;;;;;;0.00;0.00;;;13.70;99.90;;;;;;5051833;28;20264;-71
2022/11/10 09:44:12;;;;;;;0.00;0.00;;;13.80;99.90;;;;;;5051710;28;20185;-70
2022/11/10 09:46:43;;;;;;;0.00;0.00;;;13.90;99.90;;;;;;5051888;28;20188;-70
2022/11/10 09:49:29;;;;;;;0.00;0.00;;;13.90;99.90;;;;;;5051861;28;20212;-70
2022/11/10 09:51:57;;;;;;;0.00;0.00;;;14.10;99.90;;;;;;5051844;28;20530;-69
2022/11/10 09:54:23;;;;;;;0.00;0.00;;;14.10;99.90;;;;;;5051609;28;20285;-70
2022/11/10 09:56:50;;;;;;;0.00;0.00;;;14.20;99.90;;;;;;5051661;28;20198;-70
2022/11/10 09:59:20;;;;;;;0.00;0.00;;;14.20;99.90;;;;;;5051689;28;20679;-70
2022/11/10 10:01:48;;;;;;;0.00;0.00;;;14.10;99.90;;;;;;5051789;28;20188;-70
2022/11/10 10:04:38;;;;;;;0.00;0.00;;;14.00;99.90;;;;;;5051554;28;20257;-70
2022/11/10 10:07:16;;;;;;;0.00;0.00;;;13.90;99.90;;;;;;5051354;28;20292;-70
2022/11/10 10:10:00;;;;;;;0.00;0.00;;;13.90;99.90;;;;;;5051490;28;20181;-70
2022/11/10 10:12:34;;;;;;;0.00;0.00;;;14.00;99.90;;;;;;5051584;28;20178;-70
2022/11/10 10:15:12;;;;;;;0.00;0.00;;;14.20;99.90;;;;;;5051406;28;20718;-70
2022/11/10 10:18:08;;;;;;;0.05;0.05;;;14.40;99.90;;;;;;5051670;28;20264;-70
2022/11/10 10:21:12;;;;;;;0.03;0.03;;;14.60;99.90;;;;;;5051441;28;20582;-70
2022/11/10 10:23:45;;;;;;;0.00;0.00;;;14.70;99.90;;;;;;5040166;28;20225;-70
2022/11/10 10:26:15;;;;;;;0.00;0.00;;;14.90;99.90;;;;;;5051541;28;20170;-70
2022/11/10 10:28:45;;;;;;;0.03;0.03;;;15.10;99.90;;;;;;5051458;28;20704;-70
2022/11/10 10:31:19;;;;;;;0.00;0.00;;;15.20;99.90;;;;;;5051347;28;20189;-70
2022/11/10 10:33:45;;;;;;;0.00;0.00;;;15.30;99.90;;;;;;5051299;28;20195;-70
2022/11/10 10:36:30;;;;;;;0.00;0.00;;;15.40;99.90;;;;;;5051395;28;20181;-70
2022/11/10 10:39:01;;;;;;;0.00;0.00;;;15.50;99.90;;;;;;5051485;28;20166;-69
2022/11/10 10:41:29;;;;;;;0.15;0.15;;;15.50;99.90;;;;;;5054326;28;20289;-70
2022/11/10 10:43:57;;;;;;;0.00;0.00;;;15.50;99.90;;;;;;5054829;28;20177;-70
2022/11/10 10:46:26;;;;;;;0.05;0.05;;;15.50;99.90;;;;;;5054674;28;20181;-70
2022/11/10 10:49:10;;;;;;;0.00;0.00;;;15.50;99.90;;;;;;5054811;28;20176;-70
2022/11/10 10:51:35;;;;;;;0.00;0.00;;;15.50;99.90;;;;;;5054845;28;20185;-70
2022/11/10 10:54:01;;;;;;;0.30;0.20;;;15.50;99.90;;;;;;5054581;28;20170;-70
2022/11/10 10:56:32;;;;;;;0.40;0.40;;;15.40;99.90;;;;;;5054602;28;20260;-70
2022/11/10 10:59:01;;;;;;;0.00;0.00;;;15.50;99.90;;;;;;5053358;28;20304;-69
2022/11/10 11:01:37;;;;;;;0.00;0.00;;;15.60;99.90;;;;;;5054741;28;20628;-70
2022/11/10 11:04:35;;;;;;;0.00;0.00;;;15.50;99.90;;;;;;5054292;28;20268;-70
2022/11/10 11:07:04;;;;;;;0.00;0.00;;;15.40;99.90;;;;;;5054220;28;20660;-70
2022/11/10 11:09:42;;;;;;;0.22;0.20;;;15.40;99.90;;;;;;5054453;28;20188;-70
2022/11/10 11:12:13;;;;;;;0.00;0.00;;;15.40;99.90;;;;;;5054345;28;20177;-69
2022/11/10 11:14:39;;;;;;;0.00;0.00;;;15.20;99.90;;;;;;5054263;28;20274;-69
2022/11/10 11:17:17;;;;;;;0.00;0.00;;;15.10;99.90;;;;;;5054043;28;20256;-70
2022/11/10 11:19:43;;;;;;;0.10;0.10;;;14.90;99.90;;;;;;5054050;28;20185;-70
2022/11/10 11:22:27;;;;;;;0.00;0.00;;;14.80;99.90;;;;;;5053909;28;20185;-70
2022/11/10 11:25:14;;;;;;;0.00;0.00;;;14.90;99.90;;;;;;5054053;28;20177;-70
2022/11/10 11:28:04;;;;;;;0.00;0.00;;;15.00;99.90;;;;;;5053995;28;20223;-70
2022/11/10 11:30:38;;;;;;;0.00;0.00;;;15.10;99.90;;;;;;5053978;28;20210;-70
2022/11/10 11:33:31;;;;;;;0.00;0.00;;;15.20;99.90;;;;;;5053758;28;20196;-70
2022/11/10 11:36:21;;;;;;;0.00;0.00;;;15.20;99.90;;;;;;5053809;28;20318;-69
2022/11/10 11:39:34;;;;;;;0.00;0.00;;;15.30;99.90;;;;;;5054144;28;20514;-70
2022/11/10 11:42:25;;;;;;;0.00;0.00;;;15.40;99.90;;;;;;5053713;28;20563;-70
2022/11/10 11:45:09;;;;;;;0.00;0.00;;;15.30;99.90;;;;;;5053742;28;20173;-71
2022/11/10 11:47:46;;;;;;;0.00;0.00;;;15.10;99.90;;;;;;5052337;28;20231;-70
2022/11/10 11:50:14;;;;;;;0.00;0.00;;;15.00;99.90;;;;;;5053598;28;20172;-70
2022/11/10 11:52:56;;;;;;;0.00;0.00;;;15.10;99.90;;;;;;5053301;28;20177;-70
2022/11/10 11:55:45;;;;;;;0.00;0.00;;;15.20;99.90;;;;;;5053220;28;20212;-69
2022/11/10 11:58:29;;;;;;;2.42;0.13;;;15.30;99.90;;;;;;5053320;28;20285;-69
2022/11/10 12:01:15;;;;;;;0.08;0.08;;;15.40;99.90;;;;;;5053236;28;20181;-69
2022/11/10 12:04:02;;;;;;;0.00;0.00;;;15.40;99.90;;;;;;5053184;28;20184;-69
2022/11/10 12:06:54;;;;;;;0.00;0.00;;;15.20;99.90;;;;;;5053161;28;20574;-70
2022/11/10 12:09:38;;;;;;;0.03;0.03;;;15.20;99.90;;;;;;5053084;28;20247;-69
2022/11/10 12:12:12;;;;;;;0.00;0.00;;;15.10;99.90;;;;;;5053072;28;20192;-70
2022/11/10 12:14:56;;;;;;;0.00;0.00;;;14.90;99.90;;;;;;5053151;28;20304;-70
2022/11/10 12:17:41;;;;;;;0.00;0.00;;;14.90;99.90;;;;;;5051692;28;20177;-70
2022/11/10 12:20:18;;;;;;;0.00;0.00;;;15.00;99.90;;;;;;5051528;28;20231;-70
2022/11/10 12:23:00;;;;;;;0.00;0.00;;;15.00;99.90;;;;;;5052940;28;20254;-70
2022/11/10 12:25:52;;;;;;;0.00;0.00;;;15.30;99.90;;;;;;5052842;28;20240;-70
2022/11/10 12:28:30;;;;;;;0.00;0.00;;;15.60;99.90;;;;;;5044189;28;20190;-70
2022/11/10 12:31:00;;;;;;;0.00;0.00;;;15.70;99.90;;;;;;5052860;28;20177;-69
2022/11/10 12:33:33;;;;;;;0.10;0.10;;;15.70;99.90;;;;;;5052824;28;20181;-70
2022/11/10 12:36:02;;;;;;;0.00;0.00;;;15.70;99.90;;;;;;5052606;28;20222;-70
2022/11/10 12:38:41;;;;;;;0.00;0.00;;;15.60;99.90;;;;;;5052678;28;20174;-70
2022/11/10 12:41:13;;;;;;;0.00;0.00;;;15.60;99.90;;;;;;5052585;28;20537;-70
2022/11/10 12:43:47;;;;;;;0.00;0.00;;;15.60;99.90;;;;;;5052678;28;20181;-70
2022/11/10 12:46:12;;;;;;;0.10;0.00;;;15.70;99.90;;;;;;5052531;28;20188;-70
2022/11/10 12:48:55;;;;;;;0.00;0.00;;;15.70;99.90;;;;;;5052670;28;20177;-70
2022/11/10 12:51:34;;;;;;;0.00;0.00;;;15.70;99.90;;;;;;5052417;28;20577;-69
2022/11/10 12:54:00;;;;;;;0.00;0.00;;;15.70;99.90;;;;;;5052281;28;20534;-70
2022/11/10 12:56:52;;;;;;;0.00;0.00;;;15.80;99.90;;;;;;5052478;28;20181;-70
2022/11/10 12:59:20;;;;;;;0.10;0.10;;;15.90;99.90;;;;;;5052314;28;20192;-69
2022/11/10 13:01:55;;;;;;;0.00;0.00;;;15.80;99.90;;;;;;5052319;28;20514;-69
2022/11/10 13:04:21;;;;;;;0.00;0.00;;;15.80;99.90;;;;;;5051812;28;20184;-70
2022/11/10 13:06:56;;;;;;;0.00;0.00;;;15.80;99.90;;;;;;5052226;28;20181;-70
2022/11/10 13:09:27;;;;;;;0.00;0.00;;;15.80;99.90;;;;;;5052042;28;20180;-69
2022/11/10 13:12:16;;;;;;;0.00;0.00;;;15.70;99.90;;;;;;5052139;28;20551;-69
2022/11/10 13:14:43;;;;;;;0.00;0.00;;;15.60;99.90;;;;;;5051895;28;20253;-69